Time;durP1;ratioP1;P1;durP2;ratioP2;P2;SDS_P1;SDS_P2;PMS_P1;PMS_P2;Temp;Humidity;BMP_temperature;BMP_pressure;BME280_temperature;BME280_humidity;BME280_pressure;Samples;Min_cycle;Max_cycle;Signal;HPM_P1;HPM_P2
2024/02/14 00:03:16;;;;;;;3.80;2.73;;;;;;;6.16;100.00;101563.22;6126742;28;20240;-70
2024/02/14 00:06:43;;;;;;;4.47;3.17;;;;;;;6.08;100.00;101560.13;6125510;28;20231;-69
2024/02/14 00:10:06;;;;;;;4.90;3.17;;;;;;;6.28;100.00;101556.25;6126879;28;20239;-70
2024/02/14 00:13:27;;;;;;;2.33;2.23;;;;;;;6.29;100.00;101560.66;6120135;28;20658;-69
2024/02/14 00:16:48;;;;;;;3.33;2.80;;;;;;;6.28;100.00;101562.47;6102554;29;20244;-69
2024/02/14 00:20:12;;;;;;;3.67;3.13;;;;;;;6.17;100.00;101562.28;6090948;28;20267;-69
2024/02/14 00:23:34;;;;;;;3.73;2.63;;;;;;;6.10;100.00;101557.38;6093645;29;20228;-69
2024/02/14 00:26:56;;;;;;;2.93;2.40;;;;;;;6.10;100.00;101552.88;6103039;29;20235;-69
2024/02/14 00:30:17;;;;;;;3.50;2.47;;;;;;;6.10;100.00;101552.00;6098402;29;20330;-69
2024/02/14 00:33:38;;;;;;;2.33;2.13;;;;;;;6.07;100.00;101555.72;6104483;28;20320;-69
2024/02/14 00:36:59;;;;;;;3.27;2.00;;;;;;;6.12;100.00;101548.28;6098820;29;20228;-69
2024/02/14 00:40:22;;;;;;;3.77;2.40;;;;;;;6.18;100.00;101547.06;6101908;29;20236;-70
2024/02/14 00:43:43;;;;;;;2.97;2.67;;;;;;;6.17;100.00;101537.31;6106566;29;20306;-69
2024/02/14 00:47:04;;;;;;;3.13;2.37;;;;;;;6.04;100.00;101534.50;6097850;29;20232;-69
2024/02/14 00:50:25;;;;;;;4.67;2.40;;;;;;;6.15;100.00;101534.72;6105293;29;21269;-70
2024/02/14 00:53:46;;;;;;;4.03;1.83;;;;;;;6.20;100.00;101539.78;6107856;29;20235;-69
2024/02/14 00:57:08;;;;;;;3.20;2.20;;;;;;;6.10;100.00;101536.81;6105470;29;20227;-69
2024/02/14 01:00:29;;;;;;;2.50;1.90;;;;;;;6.09;100.00;101536.91;6100014;29;20513;-68
2024/02/14 01:03:50;;;;;;;2.77;2.20;;;;;;;6.11;100.00;101537.69;6107033;29;20236;-69
2024/02/14 01:07:11;;;;;;;4.80;2.37;;;;;;;6.18;100.00;101534.53;6102588;29;20792;-69
2024/02/14 01:10:35;;;;;;;2.47;1.80;;;;;;;5.97;100.00;101532.28;6098392;29;20421;-69
2024/02/14 01:13:57;;;;;;;1.57;1.43;;;;;;;5.98;100.00;101531.34;6091115;29;20244;-68
2024/02/14 01:17:18;;;;;;;2.27;2.07;;;;;;;6.04;100.00;101523.81;6080074;29;21615;-70
2024/02/14 01:20:40;;;;;;;1.57;1.47;;;;;;;6.07;100.00;101526.28;6098652;29;20701;-69
2024/02/14 01:24:01;;;;;;;2.40;2.13;;;;;;;6.02;100.00;101524.84;6108235;29;20244;-68
2024/02/14 01:27:22;;;;;;;2.43;1.60;;;;;;;5.92;100.00;101521.00;6090364;29;20587;-69
2024/02/14 01:30:44;;;;;;;1.70;1.57;;;;;;;5.89;100.00;101518.50;6102530;29;20652;-69
2024/02/14 01:34:05;;;;;;;4.43;1.70;;;;;;;5.80;100.00;101525.22;6112962;29;20227;-70
2024/02/14 01:37:26;;;;;;;3.20;2.07;;;;;;;5.96;100.00;101514.50;6101945;29;20262;-69
2024/02/14 01:40:48;;;;;;;4.10;2.37;;;;;;;5.86;100.00;101511.50;6104641;29;20235;-70
2024/02/14 01:44:10;;;;;;;2.67;2.43;;;;;;;5.93;100.00;101507.53;6115921;29;20232;-69
2024/02/14 01:47:32;;;;;;;3.27;1.80;;;;;;;5.84;100.00;101512.56;6106237;29;20224;-69
2024/02/14 01:50:53;;;;;;;2.43;1.47;;;;;;;5.72;100.00;101500.72;6105988;29;20259;-68
2024/02/14 01:54:18;;;;;;;2.37;2.17;;;;;;;5.72;100.00;101506.06;6111298;29;20512;-70
2024/02/14 01:57:40;;;;;;;4.47;2.87;;;;;;;5.62;100.00;101499.53;6103320;29;20232;-70
2024/02/14 02:01:01;;;;;;;2.60;2.10;;;;;;;5.53;100.00;101500.94;6106399;29;20984;-70
2024/02/14 02:04:24;;;;;;;3.83;2.70;;;;;;;5.53;100.00;101500.06;6108660;29;20232;-69
2024/02/14 02:07:48;;;;;;;3.97;1.80;;;;;;;5.63;100.00;101491.44;6102686;29;20232;-69
2024/02/14 02:11:09;;;;;;;7.80;2.70;;;;;;;5.52;100.00;101491.22;6100747;29;20318;-70
2024/02/14 02:14:29;;;;;;;2.90;2.50;;;;;;;5.57;100.00;101486.44;6107332;29;20259;-70
2024/02/14 02:17:53;;;;;;;2.53;2.30;;;;;;;5.61;100.00;101479.13;6101803;29;20228;-70
2024/02/14 02:21:15;;;;;;;2.47;2.27;;;;;;;5.67;100.00;101479.59;6096919;29;20243;-70
2024/02/14 02:24:37;;;;;;;3.57;2.27;;;;;;;5.61;100.00;101479.13;6108232;29;20223;-70
2024/02/14 02:28:01;;;;;;;4.87;2.20;;;;;;;5.58;100.00;101469.47;6111461;29;20227;-70
2024/02/14 02:31:22;;;;;;;2.97;2.67;;;;;;;5.62;100.00;101460.31;6103687;29;20626;-70
2024/02/14 02:34:45;;;;;;;2.97;2.50;;;;;;;5.59;100.00;101464.97;6110436;29;20236;-70
2024/02/14 02:38:06;;;;;;;2.67;2.47;;;;;;;5.58;100.00;101460.56;6107462;29;20602;-69
2024/02/14 02:41:29;;;;;;;3.60;2.43;;;;;;;5.73;100.00;101450.78;6106166;29;20236;-69
2024/02/14 02:44:51;;;;;;;2.30;2.10;;;;;;;5.88;100.00;101447.22;6108993;29;20240;-69
2024/02/14 02:48:12;;;;;;;3.57;2.87;;;;;;;5.90;100.00;101454.22;6102491;29;20243;-69
2024/02/14 02:51:33;;;;;;;2.70;2.50;;;;;;;5.99;100.00;101448.28;6109580;29;20255;-69
2024/02/14 02:54:54;;;;;;;4.07;3.17;;;;;;;5.71;100.00;101432.16;6111139;29;20307;-69
2024/02/14 02:58:16;;;;;;;2.87;2.47;;;;;;;5.67;100.00;101431.44;6110447;29;20251;-69
2024/02/14 03:01:37;;;;;;;3.03;2.77;;;;;;;5.73;100.00;101430.25;6105737;29;20575;-70
2024/02/14 03:04:58;;;;;;;4.80;3.27;;;;;;;5.79;100.00;101429.88;6106926;29;21497;-69
2024/02/14 03:08:21;;;;;;;2.80;2.43;;;;;;;5.89;100.00;101431.06;6107434;29;20241;-68
2024/02/14 03:11:42;;;;;;;2.70;2.47;;;;;;;5.86;100.00;101433.09;6098362;29;20803;-69
2024/02/14 03:15:10;;;;;;;3.70;2.77;;;;;;;5.92;100.00;101432.72;6109551;29;20235;-70
2024/02/14 03:18:30;;;;;;;3.80;2.57;;;;;;;5.61;100.00;101421.13;6109302;29;20725;-70
2024/02/14 03:21:51;;;;;;;2.70;2.50;;;;;;;5.68;100.00;101424.31;6104454;29;20235;-69
2024/02/14 03:25:14;;;;;;;4.40;3.23;;;;;;;5.77;100.00;101420.22;6104940;29;20295;-69
2024/02/14 03:28:35;;;;;;;3.70;3.33;;;;;;;5.67;100.00;101419.91;6113211;29;20275;-68
2024/02/14 03:31:58;;;;;;;3.13;2.87;;;;;;;5.74;100.00;101409.72;6103836;29;20231;-69
2024/02/14 03:35:20;;;;;;;3.97;3.60;;;;;;;5.69;100.00;101407.31;6101361;29;20236;-69
2024/02/14 03:38:41;;;;;;;5.43;3.17;;;;;;;5.70;100.00;101403.66;6109507;29;21014;-69
2024/02/14 03:42:07;;;;;;;3.93;3.53;;;;;;;5.71;100.00;101396.53;6100746;29;20322;-69
2024/02/14 03:45:29;;;;;;;2.33;2.23;;;;;;;5.62;100.00;101385.41;6101762;29;20228;-70
2024/02/14 03:48:52;;;;;;;2.93;2.60;;;;;;;5.53;100.00;101385.97;6104645;29;20315;-69
2024/02/14 03:52:14;;;;;;;3.40;3.10;;;;;;;5.62;100.00;101392.56;6102971;29;20243;-69
2024/02/14 03:55:35;;;;;;;2.60;2.40;;;;;;;5.65;100.00;101392.41;6101194;29;20232;-69
2024/02/14 03:58:56;;;;;;;3.13;2.93;;;;;;;5.64;100.00;101391.53;6112135;29;20287;-68
2024/02/14 04:02:18;;;;;;;5.33;3.73;;;;;;;5.54;100.00;101387.69;6094971;29;20247;-68
2024/02/14 04:05:41;;;;;;;4.07;2.80;;;;;;;5.65;100.00;101385.22;6095550;29;20779;-68
2024/02/14 04:09:02;;;;;;;2.90;2.60;;;;;;;5.68;100.00;101373.47;6108142;29;20228;-69
2024/02/14 04:12:22;;;;;;;3.80;3.13;;;;;;;5.58;100.00;101383.03;6098148;29;20326;-69
2024/02/14 04:15:44;;;;;;;4.63;3.10;;;;;;;5.74;100.00;101377.63;6102137;29;20236;-69
2024/02/14 04:19:04;;;;;;;2.70;2.50;;;;;;;5.65;100.00;101384.38;6103225;29;20581;-69
2024/02/14 04:22:27;;;;;;;3.43;3.03;;;;;;;5.51;100.00;101382.53;6096327;29;20244;-69
2024/02/14 04:25:48;;;;;;;2.57;2.37;;;;;;;5.49;100.00;101373.72;6098960;29;20976;-69
2024/02/14 04:29:09;;;;;;;5.57;2.77;;;;;;;5.42;100.00;101367.03;6109932;29;20231;-69
2024/02/14 04:32:30;;;;;;;2.90;2.30;;;;;;;5.50;100.00;101363.91;6090812;29;20227;-69
2024/02/14 04:35:51;;;;;;;4.33;3.67;;;;;;;5.47;100.00;101369.44;6103079;29;20240;-69
2024/02/14 04:39:13;;;;;;;4.10;2.80;;;;;;;5.52;100.00;101356.66;6103858;29;20229;-69
2024/02/14 04:42:34;;;;;;;3.23;3.03;;;;;;;5.26;100.00;101354.66;6099856;29;21267;-69
2024/02/14 04:45:55;;;;;;;3.80;3.50;;;;;;;5.35;100.00;101348.78;6098470;29;20459;-69
2024/02/14 04:49:16;;;;;;;2.40;2.13;;;;;;;5.28;100.00;101352.75;6101187;29;20252;-68
2024/02/14 04:52:38;;;;;;;3.33;3.03;;;;;;;5.36;100.00;101348.69;6093918;29;20598;-70
2024/02/14 04:56:00;;;;;;;6.20;3.33;;;;;;;5.30;100.00;101342.88;6097364;29;20326;-70
2024/02/14 04:59:21;;;;;;;3.70;3.23;;;;;;;5.25;100.00;101326.22;6107038;29;20689;-69
2024/02/14 05:02:42;;;;;;;3.53;3.23;;;;;;;5.43;100.00;101333.13;6093576;29;20244;-68
2024/02/14 05:06:03;;;;;;;3.10;2.87;;;;;;;5.39;100.00;101328.94;6086772;29;20243;-69
2024/02/14 05:09:24;;;;;;;4.97;3.30;;;;;;;5.55;100.00;101327.91;6105472;29;20259;-69
2024/02/14 05:12:46;;;;;;;3.43;2.90;;;;;;;5.65;100.00;101326.38;6092383;29;20239;-70
2024/02/14 05:16:10;;;;;;;3.53;3.27;;;;;;;5.42;100.00;101326.09;6097246;29;20240;-69
2024/02/14 05:19:31;;;;;;;3.93;3.63;;;;;;;5.54;100.00;101320.00;6099299;29;20354;-69
2024/02/14 05:22:52;;;;;;;3.47;3.27;;;;;;;5.40;100.00;101323.47;6090567;29;20232;-69
2024/02/14 05:26:13;;;;;;;4.00;3.47;;;;;;;5.37;100.00;101321.00;6101159;29;20243;-69
2024/02/14 05:29:35;;;;;;;3.93;3.57;;;;;;;5.32;100.00;101322.25;6091667;29;20366;-69
2024/02/14 05:32:56;;;;;;;4.03;3.73;;;;;;;5.43;100.00;101320.63;6092839;29;20232;-69
2024/02/14 05:36:17;;;;;;;3.90;3.60;;;;;;;5.38;100.00;101320.03;6095015;29;20729;-69
2024/02/14 05:39:38;;;;;;;7.73;4.20;;;;;;;5.53;100.00;101323.59;6086395;29;20419;-70
2024/02/14 05:42:59;;;;;;;3.20;2.93;;;;;;;5.39;100.00;101324.44;6101967;29;20565;-69
2024/02/14 05:46:22;;;;;;;3.90;3.43;;;;;;;5.55;100.00;101316.34;6084503;29;20256;-69
2024/02/14 05:49:43;;;;;;;7.03;4.10;;;;;;;5.76;100.00;101319.53;6101677;29;20232;-69
2024/02/14 05:53:04;;;;;;;4.97;3.27;;;;;;;5.82;100.00;101317.31;6091706;29;20228;-69
2024/02/14 05:56:25;;;;;;;4.80;3.37;;;;;;;5.97;100.00;101313.72;6082224;29;20231;-69
2024/02/14 05:59:46;;;;;;;3.13;2.93;;;;;;;5.87;100.00;101317.94;6092098;29;20239;-69
2024/02/14 06:03:08;;;;;;;3.60;3.30;;;;;;;5.74;100.00;101306.25;6086872;28;20232;-69
2024/02/14 06:06:30;;;;;;;3.43;2.93;;;;;;;5.81;100.00;101312.06;6028619;29;20267;-68
2024/02/14 06:09:51;;;;;;;3.70;3.40;;;;;;;5.58;100.00;101314.38;6103523;29;20608;-69
2024/02/14 06:13:11;;;;;;;3.47;3.17;;;;;;;5.76;100.00;101304.31;6108973;29;20275;-69
2024/02/14 06:16:33;;;;;;;4.87;4.27;;;;;;;5.70;100.00;101312.72;6087416;29;20556;-69
2024/02/14 06:19:56;;;;;;;3.93;3.63;;;;;;;5.58;100.00;101300.13;6090410;28;20682;-69
2024/02/14 06:23:18;;;;;;;3.50;3.30;;;;;;;5.72;100.00;101293.91;6081882;29;20236;-68
2024/02/14 06:26:38;;;;;;;5.03;4.50;;;;;;;5.76;100.00;101290.97;6104867;29;20240;-68
2024/02/14 06:30:00;;;;;;;4.67;4.27;;;;;;;5.68;100.00;101290.56;6106490;29;20240;-69
2024/02/14 06:33:21;;;;;;;4.50;4.10;;;;;;;5.74;100.00;101292.03;6100347;29;20239;-70
2024/02/14 06:36:45;;;;;;;8.63;4.37;;;;;;;5.76;100.00;101296.31;6091139;29;20247;-70
2024/02/14 06:40:10;;;;;;;5.33;4.93;;;;;;;5.73;100.00;101288.50;6100272;29;20231;-69
2024/02/14 06:43:31;;;;;;;4.93;4.33;;;;;;;5.73;100.00;101290.28;6109861;29;20236;-69
2024/02/14 06:46:52;;;;;;;3.60;3.40;;;;;;;5.78;100.00;101302.41;6104615;29;20240;-69
2024/02/14 06:50:13;;;;;;;4.10;3.70;;;;;;;5.83;100.00;101286.94;6098259;29;20244;-70
2024/02/14 06:53:35;;;;;;;5.20;4.70;;;;;;;5.82;100.00;101295.09;6107698;29;20240;-70
2024/02/14 06:56:56;;;;;;;4.20;3.90;;;;;;;5.89;100.00;101291.94;6101964;29;20232;-68
2024/02/14 07:00:18;;;;;;;4.13;3.83;;;;;;;5.86;100.00;101302.00;6099184;29;20637;-69
2024/02/14 07:03:40;;;;;;;4.17;3.77;;;;;;;5.87;100.00;101285.84;6118157;29;20318;-68
2024/02/14 07:07:01;;;;;;;5.13;4.63;;;;;;;5.92;100.00;101291.78;6099136;29;20237;-68
2024/02/14 07:10:23;;;;;;;5.60;4.47;;;;;;;5.95;100.00;101301.41;6111817;29;20236;-68
2024/02/14 07:13:44;;;;;;;3.70;3.50;;;;;;;6.01;100.00;101293.84;6111161;29;20244;-66
2024/02/14 07:17:05;;;;;;;4.47;4.17;;;;;;;6.08;100.00;101295.19;6085945;29;20231;-66
2024/02/14 07:20:30;;;;;;;4.30;3.67;;;;;;;6.02;100.00;101290.22;6105988;28;20505;-66
2024/02/14 07:23:51;;;;;;;4.43;4.03;;;;;;;5.97;100.00;101294.13;6116667;29;20243;-66
2024/02/14 07:27:16;;;;;;;4.47;4.17;;;;;;;6.01;100.00;101295.66;6100264;29;20658;-65
2024/02/14 07:30:37;;;;;;;5.57;5.03;;;;;;;5.93;100.00;101298.81;6090752;29;20342;-68
2024/02/14 07:33:58;;;;;;;4.87;4.47;;;;;;;5.97;100.00;101296.81;6071227;29;20797;-69
2024/02/14 07:37:19;;;;;;;4.77;4.27;;;;;;;6.03;100.00;101299.97;6095551;29;20977;-68
2024/02/14 07:40:41;;;;;;;4.40;4.00;;;;;;;6.12;100.00;101299.38;6096635;29;20236;-68
2024/02/14 07:44:04;;;;;;;4.70;4.27;;;;;;;6.22;100.00;101294.28;6104750;29;20232;-68
2024/02/14 07:47:25;;;;;;;4.33;4.03;;;;;;;6.19;100.00;101295.38;6094017;29;20224;-67
2024/02/14 07:50:46;;;;;;;4.20;3.90;;;;;;;6.19;100.00;101292.69;6095660;29;20231;-67
2024/02/14 07:54:07;;;;;;;4.73;4.17;;;;;;;6.25;100.00;101296.78;6084592;29;20235;-68
2024/02/14 07:57:28;;;;;;;5.33;4.83;;;;;;;6.22;100.00;101292.47;6104094;29;20236;-69
2024/02/14 08:00:50;;;;;;;7.43;4.03;;;;;;;6.20;100.00;101289.03;6072647;29;20235;-69
2024/02/14 08:04:11;;;;;;;5.00;4.57;;;;;;;6.28;100.00;101284.06;6112454;28;20227;-68
2024/02/14 08:07:32;;;;;;;4.87;4.30;;;;;;;6.21;100.00;101284.56;6102875;29;20236;-69
2024/02/14 08:10:54;;;;;;;5.37;4.87;;;;;;;6.23;100.00;101291.53;6103972;29;20236;-68
2024/02/14 08:14:15;;;;;;;4.50;4.13;;;;;;;6.52;100.00;101283.41;6108881;29;20562;-69
2024/02/14 08:17:37;;;;;;;5.73;5.23;;;;;;;7.23;100.00;101279.47;6094238;29;20236;-69
2024/02/14 08:20:58;;;;;;;4.07;3.77;;;;;;;7.54;100.00;101276.38;6078627;29;20235;-68
2024/02/14 08:24:19;;;;;;;7.97;3.53;;;;;;;7.94;100.00;101274.41;6114034;28;20614;-69
2024/02/14 08:27:40;;;;;;;5.43;5.00;;;;;;;7.61;100.00;101279.50;6105926;29;20232;-70
2024/02/14 08:31:01;;;;;;;3.77;3.47;;;;;;;7.66;100.00;101278.19;6099031;29;20685;-68
2024/02/14 08:34:23;;;;;;;3.20;3.00;;;;;;;7.50;100.00;101280.25;6077449;29;20890;-69
2024/02/14 08:37:44;;;;;;;4.23;3.83;;;;;;;6.97;100.00;101275.00;6089906;29;20251;-66
2024/02/14 08:41:05;;;;;;;4.70;4.30;;;;;;;6.88;100.00;101279.19;6098421;29;20235;-68
2024/02/14 08:44:26;;;;;;;6.40;3.87;;;;;;;6.93;100.00;101273.50;6100786;29;20236;-67
2024/02/14 08:47:47;;;;;;;3.67;3.37;;;;;;;7.13;100.00;101281.91;6097173;29;20236;-67
2024/02/14 08:51:10;;;;;;;4.47;3.57;;;;;;;7.10;100.00;101273.22;6099076;29;20624;-66
2024/02/14 08:54:32;;;;;;;8.23;4.63;;;;;;;7.05;100.00;101278.03;6096858;29;20239;-67
2024/02/14 08:57:53;;;;;;;6.83;4.43;;;;;;;6.99;100.00;101281.13;6099787;29;20231;-67
2024/02/14 09:01:14;;;;;;;5.37;4.27;;;;;;;7.12;100.00;101284.69;6093270;29;20235;-67
2024/02/14 09:04:35;;;;;;;4.57;4.17;;;;;;;7.12;100.00;101284.69;6066780;29;20240;-67
2024/02/14 09:07:58;;;;;;;4.33;3.93;;;;;;;7.15;100.00;101281.81;6087150;29;20228;-66
2024/02/14 09:11:19;;;;;;;4.03;3.73;;;;;;;7.07;100.00;101284.16;6095639;29;20521;-67
2024/02/14 09:14:40;;;;;;;3.97;3.67;;;;;;;7.06;100.00;101285.09;6094003;29;20232;-66
2024/02/14 09:18:03;;;;;;;7.80;3.87;;;;;;;7.10;100.00;101289.28;6087424;29;20357;-67
2024/02/14 09:21:24;;;;;;;4.57;3.77;;;;;;;7.28;100.00;101283.53;6093315;29;20231;-65
2024/02/14 09:24:46;;;;;;;4.37;3.97;;;;;;;7.47;100.00;101288.47;6097513;29;20227;-67
2024/02/14 09:28:07;;;;;;;5.87;2.90;;;;;;;7.42;100.00;101282.59;6105496;29;20243;-66
2024/02/14 09:31:28;;;;;;;4.13;3.83;;;;;;;7.55;100.00;101278.06;6086477;29;20513;-67
2024/02/14 09:34:51;;;;;;;4.70;4.40;;;;;;;7.54;100.00;101276.38;6103649;29;20240;-66
2024/02/14 09:38:12;;;;;;;3.70;3.40;;;;;;;7.57;100.00;101280.69;6109947;29;20228;-66
2024/02/14 09:41:39;;;;;;;3.97;3.57;;;;;;;7.69;100.00;101283.34;6095712;29;20327;-67
2024/02/14 09:45:00;;;;;;;4.60;4.20;;;;;;;7.63;100.00;101283.78;6107923;29;20236;-67
2024/02/14 09:48:22;;;;;;;4.03;3.73;;;;;;;7.72;100.00;101293.00;6110482;29;20334;-67
2024/02/14 09:51:45;;;;;;;5.13;4.57;;;;;;;7.68;100.00;101287.00;6104884;29;20227;-67
2024/02/14 09:55:06;;;;;;;4.00;3.60;;;;;;;7.74;100.00;101283.03;6098276;29;20237;-66
2024/02/14 09:58:29;;;;;;;5.17;4.43;;;;;;;7.83;100.00;101288.59;6103301;29;20787;-66
2024/02/14 10:01:51;;;;;;;4.27;3.87;;;;;;;7.98;100.00;101286.66;6093049;29;20240;-67
2024/02/14 10:05:11;;;;;;;4.57;4.27;;;;;;;8.00;100.00;101290.94;6104653;29;20357;-67
2024/02/14 10:08:33;;;;;;;4.87;4.07;;;;;;;8.19;100.00;101286.94;6108798;29;20228;-66
2024/02/14 10:11:54;;;;;;;4.43;3.77;;;;;;;8.19;100.00;101297.69;6110908;29;20562;-65
2024/02/14 10:15:16;;;;;;;5.30;4.03;;;;;;;8.25;100.00;101295.44;6099206;29;20559;-65
2024/02/14 10:18:37;;;;;;;4.40;4.00;;;;;;;8.35;100.00;101293.81;6109060;29;20236;-66
2024/02/14 10:21:59;;;;;;;4.43;4.03;;;;;;;8.36;100.00;101303.59;6106289;29;20247;-66
2024/02/14 10:25:21;;;;;;;5.07;3.57;;;;;;;8.45;100.00;101310.13;6098414;28;20610;-66
2024/02/14 10:28:43;;;;;;;3.60;3.30;;;;;;;8.54;100.00;101304.06;6110675;29;20879;-66
2024/02/14 10:32:05;;;;;;;3.13;2.53;;;;;;;8.65;100.00;101307.69;6099802;29;20220;-65
2024/02/14 10:35:26;;;;;;;3.37;2.63;;;;;;;8.75;100.00;101305.16;6107291;29;22279;-66
2024/02/14 10:38:49;;;;;;;3.07;2.87;;;;;;;8.84;100.00;101312.56;6108023;29;20235;-65
2024/02/14 10:42:10;;;;;;;3.40;3.13;;;;;;;8.95;100.00;101306.38;6106924;29;20622;-66
2024/02/14 10:45:31;;;;;;;3.23;2.93;;;;;;;8.97;100.00;101310.63;6100961;29;20228;-65
2024/02/14 10:48:57;;;;;;;3.30;2.70;;;;;;;9.11;100.00;101318.53;6093808;29;20231;-64
2024/02/14 10:52:19;;;;;;;2.50;2.30;;;;;;;9.14;100.00;101312.06;6098505;29;20240;-65
2024/02/14 10:55:42;;;;;;;2.80;2.60;;;;;;;9.24;100.00;101313.94;6105753;29;20227;-67
2024/02/14 10:59:04;;;;;;;3.40;3.20;;;;;;;9.24;100.00;101322.00;6105680;29;20319;-68
2024/02/14 11:02:27;;;;;;;2.63;2.43;;;;;;;9.29;100.00;101314.44;6090904;29;20608;-68
2024/02/14 11:05:50;;;;;;;3.73;2.50;;;;;;;9.32;100.00;101319.59;6084699;29;21816;-67
2024/02/14 11:09:15;;;;;;;2.63;2.43;;;;;;;9.33;100.00;101320.44;6101769;29;20236;-66
2024/02/14 11:12:39;;;;;;;7.23;3.00;;;;;;;9.36;100.00;101326.47;6091730;29;20236;-67
2024/02/14 11:16:10;;;;;;;;;;;;;;;;;;;;;
2024/02/14 11:19:44;;;;;;;2.97;2.77;;;;;;;9.45;100.00;101314.97;6097377;29;20587;-67
2024/02/14 11:23:11;;;;;;;4.40;3.10;;;;;;;9.50;100.00;101323.56;6102103;29;20506;-67
2024/02/14 11:26:39;;;;;;;3.53;3.33;;;;;;;9.55;100.00;101317.84;6090302;29;20548;-68
2024/02/14 11:30:00;;;;;;;3.23;2.97;;;;;;;9.61;100.00;101314.66;6101719;29;20561;-67
2024/02/14 11:33:23;;;;;;;2.47;2.27;;;;;;;9.65;100.00;101325.06;6093281;29;20232;-69
2024/02/14 11:36:45;;;;;;;4.70;4.17;;;;;;;9.69;100.00;101323.00;6094867;29;20247;-67
2024/02/14 11:40:09;;;;;;;4.13;3.53;;;;;;;9.75;100.00;101327.91;6107156;29;20310;-67
2024/02/14 11:43:31;;;;;;;3.90;3.40;;;;;;;9.83;100.00;101332.66;6105863;29;20240;-66
2024/02/14 11:46:52;;;;;;;4.70;4.30;;;;;;;9.83;100.00;101333.53;6104724;29;20232;-67
2024/02/14 11:50:14;;;;;;;4.97;4.43;;;;;;;9.86;100.00;101335.13;6097575;29;20236;-67
2024/02/14 11:53:35;;;;;;;3.73;3.43;;;;;;;9.89;100.00;101340.28;6099564;29;20552;-67
2024/02/14 11:57:00;;;;;;;3.43;3.13;;;;;;;9.90;100.00;101328.53;6104749;29;20248;-67
2024/02/14 12:00:21;;;;;;;4.30;3.97;;;;;;;9.94;100.00;101338.94;6098843;29;20232;-67
2024/02/14 12:03:42;;;;;;;4.53;4.13;;;;;;;9.95;100.00;101332.56;6094527;29;20247;-67
2024/02/14 12:07:04;;;;;;;3.67;3.43;;;;;;;9.99;100.00;101339.41;6101241;29;20413;-67
2024/02/14 12:10:24;;;;;;;4.00;3.70;;;;;;;10.02;97.76;101331.09;6098480;28;20586;-68
2024/02/14 12:13:51;;;;;;;3.90;3.50;;;;;;;10.04;93.98;101348.00;6101134;29;20465;-67
2024/02/14 12:17:12;;;;;;;5.70;5.30;;;;;;;10.09;91.46;101337.75;6095974;29;20235;-67
2024/02/14 12:20:34;;;;;;;4.63;4.23;;;;;;;10.15;89.20;101334.59;6101182;29;20231;-66
2024/02/14 12:23:59;;;;;;;6.70;4.67;;;;;;;10.21;87.85;101347.56;6108072;29;20868;-67
2024/02/14 12:27:21;;;;;;;6.77;4.50;;;;;;;10.26;86.87;101341.81;6110039;29;20646;-68
2024/02/14 12:30:48;;;;;;;6.10;5.30;;;;;;;10.27;85.37;101346.19;6105834;29;20231;-68
2024/02/14 12:34:12;;;;;;;5.90;5.27;;;;;;;10.29;85.05;101344.25;6113574;29;20227;-67
2024/02/14 12:37:32;;;;;;;5.87;5.27;;;;;;;10.32;63.61;101347.56;6101198;29;20251;-67
2024/02/14 12:40:54;;;;;;;6.17;5.10;;;;;;;10.38;63.27;101346.22;6100859;29;20255;-67
2024/02/14 12:44:15;;;;;;;6.80;6.20;;;;;;;10.41;62.01;101351.34;6102902;29;20231;-68
2024/02/14 12:47:38;;;;;;;7.60;5.27;;;;;;;10.42;60.55;101353.94;6102767;29;20236;-68
2024/02/14 12:50:59;;;;;;;7.43;6.67;;;;;;;10.41;59.49;101354.91;6101156;29;20239;-67
2024/02/14 12:54:20;;;;;;;7.87;6.27;;;;;;;10.42;56.15;101355.75;6098697;29;20235;-67
2024/02/14 12:57:41;;;;;;;6.77;6.27;;;;;;;10.36;53.84;101351.72;6101885;29;20741;-68
2024/02/14 13:01:05;;;;;;;7.07;6.47;;;;;;;10.36;50.34;101354.44;6078826;29;20239;-67
2024/02/14 13:04:27;;;;;;;8.63;7.87;;;;;;;10.37;46.32;101352.56;6102664;29;20330;-68
2024/02/14 13:07:50;;;;;;;7.73;6.93;;;;;;;10.35;40.99;101358.09;6100457;29;20708;-67
2024/02/14 13:11:11;;;;;;;6.93;6.33;;;;;;;10.36;32.74;101361.66;6091387;29;20661;-66
2024/02/14 13:14:32;;;;;;;7.17;6.47;;;;;;;10.36;21.68;101361.66;6078491;29;20232;-67
2024/02/14 13:17:54;;;;;;;6.73;6.13;;;;;;;10.37;14.55;101363.34;6090944;29;20326;-67
2024/02/14 13:21:17;;;;;;;7.33;6.63;;;;;;;10.40;9.05;101357.72;6098681;29;20594;-68
2024/02/14 13:24:38;;;;;;;6.90;6.10;;;;;;;10.42;5.23;101359.31;6110633;29;20235;-67
2024/02/14 13:27:59;;;;;;;7.67;6.97;;;;;;;10.46;2.86;101357.22;6105828;29;20223;-68
2024/02/14 13:31:20;;;;;;;7.80;6.97;;;;;;;10.48;1.79;101360.66;6110596;29;20235;-67
2024/02/14 13:34:41;;;;;;;6.87;6.17;;;;;;;10.53;0.00;101368.38;6098266;29;20326;-68
2024/02/14 13:38:03;;;;;;;5.83;5.33;;;;;;;10.54;0.00;101370.06;6096042;29;20325;-68
2024/02/14 13:41:24;;;;;;;6.33;5.83;;;;;;;10.54;0.00;101367.38;6103478;29;20244;-67
2024/02/14 13:44:45;;;;;;;7.00;6.40;;;;;;;10.54;0.00;101356.59;6101819;29;24228;-67
2024/02/14 13:48:07;;;;;;;5.80;5.33;;;;;;;10.53;0.00;101366.53;6096784;29;20239;-67
2024/02/14 13:51:28;;;;;;;5.23;3.80;;;;;;;10.58;0.00;101372.41;6096592;29;20255;-67
2024/02/14 13:54:50;;;;;;;5.27;4.77;;;;;;;10.63;0.42;101370.19;6081887;29;20643;-67
2024/02/14 13:58:16;;;;;;;6.93;6.33;;;;;;;10.65;2.03;101364.69;6106761;29;20665;-67
2024/02/14 14:01:37;;;;;;;5.17;4.77;;;;;;;10.65;3.59;101372.78;6102009;29;20315;-67
2024/02/14 14:04:58;;;;;;;6.43;5.07;;;;;;;10.67;5.09;101370.81;6105163;29;20258;-68
2024/02/14 14:08:20;;;;;;;6.87;5.90;;;;;;;10.70;5.88;101375.97;6106045;29;20244;-67
2024/02/14 14:11:42;;;;;;;6.00;5.40;;;;;;;10.72;7.61;101372.13;6096392;29;20227;-67
2024/02/14 14:15:04;;;;;;;6.60;5.93;;;;;;;10.70;9.30;101371.41;6092201;29;20235;-67
2024/02/14 14:18:25;;;;;;;5.07;4.67;;;;;;;10.71;10.80;101372.25;6091008;29;20243;-67
2024/02/14 14:21:45;;;;;;;6.53;5.30;;;;;;;10.70;13.15;101373.25;6097478;29;20232;-68
2024/02/14 14:25:08;;;;;;;7.07;4.87;;;;;;;10.68;13.95;101386.00;6103358;29;20323;-67
2024/02/14 14:28:32;;;;;;;6.37;5.20;;;;;;;10.66;14.20;101382.59;6107506;28;20227;-67
2024/02/14 14:31:53;;;;;;;5.87;4.67;;;;;;;10.66;14.30;101375.34;6076813;29;20619;-67
2024/02/14 14:35:15;;;;;;;4.87;4.47;;;;;;;10.63;13.82;101372.91;6098824;29;20247;-67
2024/02/14 14:38:36;;;;;;;6.57;5.77;;;;;;;10.62;13.69;101383.81;6102855;29;20243;-67
2024/02/14 14:41:58;;;;;;;6.07;5.47;;;;;;;10.60;13.32;101381.22;6096121;29;20384;-67
2024/02/14 14:45:20;;;;;;;5.73;5.23;;;;;;;10.60;12.00;101386.63;6100791;29;20239;-67
2024/02/14 14:48:42;;;;;;;5.70;5.20;;;;;;;10.57;11.24;101386.88;6112776;29;20232;-66
2024/02/14 14:52:04;;;;;;;5.67;5.17;;;;;;;10.55;8.83;101385.28;6097183;29;20240;-68
2024/02/14 14:55:25;;;;;;;6.10;5.60;;;;;;;10.55;6.96;101391.53;6109373;29;20235;-67
2024/02/14 14:58:45;;;;;;;6.50;6.00;;;;;;;10.57;6.55;101386.88;6110811;29;20231;-68
2024/02/14 15:02:08;;;;;;;6.90;6.30;;;;;;;10.56;5.75;101379.75;6081250;28;20979;-67
2024/02/14 15:05:28;;;;;;;7.57;5.63;;;;;;;10.57;5.21;101386.88;6108029;29;20256;-67
2024/02/14 15:08:49;;;;;;;6.70;6.10;;;;;;;10.58;4.64;101391.28;6122231;29;20236;-67
2024/02/14 15:12:10;;;;;;;7.03;6.00;;;;;;;10.62;3.76;101392.75;6114837;29;20228;-67
2024/02/14 15:15:32;;;;;;;5.73;5.23;;;;;;;10.62;4.92;101390.03;6112019;29;20239;-67
2024/02/14 15:18:55;;;;;;;5.70;5.20;;;;;;;10.63;4.62;101394.47;6111776;29;20236;-67
2024/02/14 15:22:16;;;;;;;6.73;6.10;;;;;;;10.66;5.89;101396.06;6104341;29;20248;-65
2024/02/14 15:25:37;;;;;;;5.53;5.03;;;;;;;10.68;6.77;101394.09;6094759;29;20236;-66
2024/02/14 15:36:17;;;;;;;5.17;4.77;;;;;;;10.73;11.92;101398.13;6105353;29;20295;-66
2024/02/14 15:39:38;;;;;;;3.93;3.63;;;;;;;10.74;14.19;101393.59;6108293;29;20232;-66
2024/02/14 15:43:00;;;;;;;4.90;4.50;;;;;;;10.75;16.04;101392.59;6085920;29;20244;-66
2024/02/14 15:46:21;;;;;;;5.33;4.60;;;;;;;10.76;18.95;101392.50;6100252;29;20244;-66
2024/02/14 15:49:42;;;;;;;5.13;4.60;;;;;;;10.74;21.32;101394.47;6108609;29;20228;-66